Portage Canal (45023)

Conditions for Sunday

Daily
Weekly
Monthly
Marine Data Graph

Current Weather/Wave Observations

Air Temperature: 64° F
Humidity: 56
Wind direction (W Dir): NE (35 - 44 Degrees)
Wind Speed (W Spd): 3.9 kts (4.5 mph)
Wind Gust (W Spd): 5.8 kts (6.7 mph)
Dominant Wave Height (DWH): 0.66 ft
Dominant Wave Range (DWR): exactly 0.7 ft
Atmospheric Pressure (AP): 30.04 in

Updated: 5:39 PM EDT on July 21, 2019

Marine & Boating Location Search

Enter a coastal zip code for marine weather.

Current Wave Detail Observations

Water Depth: 82 ft
Wave Height: 0.75 ft
Spectral Peak Period:
Average Wave Period:
Sampling Interval:
Wave Record:

Updated: 6:00 PM EDT on July 21, 2019

General Information

Location: 47.27 -88.607
Buoy Type: Moored Buoy
Owned by: Michigan Technological University
Windspeed: Measured by obtained from anemometer
Sea Surface: Measured by Intake

Weather and Wave Data

Time Temp Humidity Wind Dominant Wave Pressure
  Air
(°F)
Water
(°F)
  Dir Speed
(kts)
Speed
(mph)
Period
(sec)
Height
(ft)
Range
(ft)
Atmo.
(in)
Tend.
(in)
20:19 67 64 68 West 15.6 17.9 1.64 exactly 1.6 29.83 -
20:29 67 64 68 West 15.6 17.9 1.64 exactly 1.6 29.83 -
20:39 68 64 64 West 13.6 15.7 2 1.31 exactly 1.3 29.83 -
20:49 67 64 70 West 13.6 15.7 2 1.31 exactly 1.3 29.80 -
20:59 68 64 65 West 11.7 13.4 3 1.31 exactly 1.3 29.80 -
21:19 68 64 65 West 9.7 11.2 3 1.64 exactly 1.6 29.80 -
21:29 67 64 67 West 11.7 13.4 3 1.64 exactly 1.6 29.80 -
21:39 67 64 67 West 13.6 15.7 3 1.31 exactly 1.3 29.80 -
21:49 67 64 67 WNW 11.7 13.4 3 1.31 exactly 1.3 29.80 -
21:59 67 64 67 South 11.7 13.4 3 1.31 exactly 1.3 29.80 -
22:19 67 64 66 SW 11.7 13.4 3 1.64 exactly 1.6 29.83 -
22:29 67 64 67 SW 9.7 11.2 3 1.64 exactly 1.6 29.83 -
22:39 67 64 67 SSW 15.6 17.9 3 1.31 exactly 1.3 29.83 -
22:49 67 64 68 SW 13.6 15.7 3 1.31 exactly 1.3 29.83 -
22:59 66 64 73 SW 11.7 13.4 3 1.64 exactly 1.6 29.83 -
23:19 66 63 76 SW 9.7 11.2 3 1.31 exactly 1.3 29.83 -
23:29 66 63 64 NNW 11.7 13.4 3 1.31 exactly 1.3 29.86 -
23:39 64 64 63 West 9.7 11.2 3 1.31 exactly 1.3 29.86 -
23:49 62 64 73 North 11.7 13.4 3 1.31 exactly 1.3 29.86 -
23:59 62 64 73 NNW 5.8 6.7 3 1.31 exactly 1.3 29.86 -
00:19 62 64 73 West 1.9 2.2 3 1.31 exactly 1.3 29.86 -
00:29 62 64 75 WSW 1.9 2.2 3 1.31 exactly 1.3 29.86 -
00:39 62 64 66 WNW 3.9 4.5 3 1.31 exactly 1.3 29.86 -
00:49 62 64 68 NW 5.8 6.7 3 1.31 exactly 1.3 29.86 -
00:59 61 64 72 NW 1.9 2.2 3 0.98 exactly 1.0 29.86 -
01:09 61 64 71 NW 3.9 4.5 3 0.98 exactly 1.0 29.89 -
01:19 61 63 69 WNW 3.9 4.5 3 0.98 exactly 1.0 29.89 -
01:29 61 64 71 West 3.9 4.5 3 0.98 exactly 1.0 29.89 -
01:39 62 64 73 West 3.9 4.5 3 0.98 exactly 1.0 29.89 -
01:59 62 64 73 WNW 3.9 4.5 3 0.98 exactly 1.0 29.89 -
02:09 62 64 77 WSW 3.9 4.5 3 0.98 exactly 1.0 29.89 -
02:19 62 64 75 West 3.9 4.5 3 0.98 exactly 1.0 29.89 -
02:29 62 64 79 West 3.9 4.5 3 0.98 exactly 1.0 29.89 -
02:49 62 64 80 West 3.9 4.5 3 0.98 exactly 1.0 29.89 -
02:59 62 64 81 West 3.9 4.5 3 0.98 exactly 1.0 29.92 -
03:09 62 64 81 WNW 3.9 4.5 3 0.98 exactly 1.0 29.92 -
03:19 62 64 80 WNW 5.8 6.7 3 0.98 exactly 1.0 29.92 -
03:29 62 64 75 WNW 3.9 4.5 3 0.98 exactly 1.0 29.92 -
03:39 62 64 70 North 5.8 6.7 3 0.98 exactly 1.0 29.92 -
03:49 61 64 71 NNW 5.8 6.7 3 0.98 exactly 1.0 29.92 -
03:59 60 64 69 NNW 5.8 6.7 1.31 exactly 1.3 29.92 -
04:09 60 64 69 NNW 3.9 4.5 1.31 exactly 1.3 29.95 -
04:19 60 64 71 NNW 3.9 4.5 3 0.98 exactly 1.0 29.95 -
04:29 59 64 76 North 5.8 6.7 3 0.98 exactly 1.0 29.95 -
04:39 59 64 77 North 5.8 6.7 0.98 exactly 1.0 29.95 -
04:59 58 64 76 NNE 5.8 6.7 0.98 exactly 1.0 29.95 -
05:09 58 64 77 NE 5.8 6.7 0.98 exactly 1.0 29.95 -
05:19 58 64 78 East 3.9 4.5 3 0.98 exactly 1.0 29.95 -
05:29 58 64 78 East 3.9 4.5 3 0.98 exactly 1.0 29.95 -
05:39 58 64 78 East 3.9 4.5 1.31 exactly 1.3 29.95 -
05:49 58 64 80 ENE 3.9 4.5 1.31 exactly 1.3 29.95 -
05:59 58 64 80 East 3.9 4.5 0.66 exactly 0.7 29.95 -
06:09 58 64 80 East 5.8 6.7 0.66 exactly 0.7 29.95 -
06:19 58 64 83 ENE 5.8 6.7 0.66 exactly 0.7 29.95 -
06:39 59 64 82 NE 7.8 8.9 0.66 exactly 0.7 29.95 -
06:49 59 64 82 NE 3.9 4.5 0.66 exactly 0.7 29.98 -
06:59 59 64 84 East 7.8 8.9 0.66 exactly 0.7 29.98 -
07:29 60 64 83 NE 7.8 8.9 0.66 exactly 0.7 29.98 -
07:49 58 64 89 ENE 9.7 11.2 0.66 exactly 0.7 29.98 -
08:39 58 65 88 ENE 9.7 11.2 4 0.98 exactly 1.0 30.01 -
08:49 57 65 91 ENE 9.7 11.2 4 0.98 exactly 1.0 30.01 -
08:59 57 65 90 East 9.7 11.2 2 0.98 exactly 1.0 30.01 -
09:09 58 65 87 East 9.7 11.2 2 0.98 exactly 1.0 30.01 -
09:19 58 65 86 East 9.7 11.2 2 0.98 exactly 1.0 30.01 -
09:29 58 65 89 ENE 9.7 11.2 2 0.98 exactly 1.0 30.01 -
09:39 58 65 89 East 9.7 11.2 3 1.31 exactly 1.3 30.01 -
09:49 59 65 84 East 9.7 11.2 3 1.31 exactly 1.3 30.01 -
09:59 59 65 83 ENE 11.7 13.4 3 1.31 exactly 1.3 30.01 -
10:09 59 65 82 East 9.7 11.2 3 1.31 exactly 1.3 30.01 -
10:19 59 65 82 East 9.7 11.2 3 1.31 exactly 1.3 30.04 -
10:29 60 65 78 ENE 9.7 11.2 3 1.31 exactly 1.3 30.04 -
10:39 60 65 81 East 7.8 8.9 3 1.31 exactly 1.3 30.04 -
10:49 60 65 79 East 13.6 15.7 3 1.31 exactly 1.3 30.04 -
10:59 60 65 82 East 9.7 11.2 3 1.31 exactly 1.3 30.04 -
11:09 60 65 78 East 11.7 13.4 3 1.31 exactly 1.3 30.04 -
11:19 60 65 81 ENE 11.7 13.4 3 1.31 exactly 1.3 30.04 -
11:39 60 65 79 ENE 13.6 15.7 3 1.31 exactly 1.3 30.04 -
11:59 61 65 75 ENE 9.7 11.2 3 1.31 exactly 1.3 30.04 -
12:09 61 65 76 ENE 11.7 13.4 3 1.31 exactly 1.3 30.04 -
12:19 61 65 78 ENE 7.8 8.9 1.64 exactly 1.6 30.04 -
12:29 61 65 78 ENE 11.7 13.4 1.64 exactly 1.6 30.04 -
12:39 60 65 83 NE 11.7 13.4 3 1.31 exactly 1.3 30.06 -
12:49 60 65 78 NNE 11.7 13.4 3 1.31 exactly 1.3 30.06 -
12:59 58 65 85 NE 13.6 15.7 3 1.31 exactly 1.3 30.06 -
13:19 58 65 80 North 9.7 11.2 7 1.64 exactly 1.6 30.06 -
13:49 60 65 70 NE 15.6 17.9 3 1.31 exactly 1.3 30.06 -
13:59 60 65 65 ENE 11.7 13.4 3 1.64 exactly 1.6 30.06 -
14:19 60 65 65 ENE 9.7 11.2 3 1.64 exactly 1.6 30.06 -
14:39 60 65 70 ENE 9.7 11.2 3 1.64 exactly 1.6 30.06 -
14:49 60 65 70 NE 9.7 11.2 3 1.64 exactly 1.6 30.06 -
14:59 60 65 70 NE 7.8 8.9 3 1.64 exactly 1.6 30.06 -
15:09 61 65 64 ESE 9.7 11.2 3 1.64 exactly 1.6 30.06 -
15:19 61 66 61 East 9.7 11.2 3 1.64 exactly 1.6 30.06 -
15:29 61 66 63 East 7.8 8.9 3 1.64 exactly 1.6 30.06 -
15:39 62 66 57 WNW 9.7 11.2 30.06 -
15:49 62 66 56 NNW 9.7 11.2 30.06 -
15:59 62 66 59 ENE 7.8 8.9 3 1.31 exactly 1.3 30.06 -
16:09 62 66 57 East 7.8 8.9 3 1.31 exactly 1.3 30.06 -
16:29 62 66 56 East 7.8 8.9 3 0.98 exactly 1.0 30.06 -
16:49 63 66 55 ENE 5.8 6.7 2 0.98 exactly 1.0 30.06 -
16:59 63 66 54 ENE 5.8 6.7 2 0.98 exactly 1.0 30.06 -
17:09 63 66 54 NE 3.9 4.5 3 0.98 exactly 1.0 30.06 -
17:19 63 66 57 ENE 3.9 4.5 3 0.98 exactly 1.0 30.06 -
17:29 64 66 52 NNE 5.8 6.7 0.66 exactly 0.7 30.04 -
17:39 64 66 56 NE 3.9 4.5 0.66 exactly 0.7 30.04 -

Detailed Wave Spectra

Time Water Depth Wave Height Spectral Peak Period Average Wave Period Sampling Interval Wave Record
20:00 82 ft 1.15 ft 2.3 sec
21:00 82 ft 1.64 ft 2.8 sec
22:00 82 ft 1.48 ft 2.8 sec
23:00 82 ft 1.41 ft 2.8 sec
00:00 82 ft 1.21 ft 3.1 sec
01:00 82 ft 1.08 ft 3.2 sec
02:00 82 ft 1.08 ft 3.2 sec
03:00 82 ft 0.98 ft 3.1 sec
04:00 82 ft 0.95 ft 3.0 sec
05:00 82 ft 0.95 ft 3.4 sec
06:00 82 ft 0.79 ft
07:00 82 ft 0.66 ft
08:00 82 ft 0.98 ft
09:00 82 ft 1.02 ft 2.5 sec
10:00 82 ft 1.38 ft 2.8 sec
11:00 82 ft 1.44 ft 2.7 sec
12:00 82 ft 1.67 ft
13:00 82 ft 1.35 ft 2.7 sec
14:00 82 ft 1.67 ft 3.0 sec
15:00 82 ft 1.51 ft 3.1 sec
16:00 82 ft 1.18 ft 3.0 sec
17:00 82 ft 0.85 ft 2.6 sec
18:00 82 ft 0.75 ft